Time;durP1;ratioP1;P1;durP2;ratioP2;P2;SDS_P1;SDS_P2;PMS_P1;PMS_P2;Temp;Humidity;BMP_temperature;BMP_pressure;BME280_temperature;BME280_humidity;BME280_pressure;Samples;Min_cycle;Max_cycle;Signal;HPM_P1;HPM_P2
2023/05/17 00:01:32;;;;;;;10.38;1.85;;;7.80;99.90;;;;;;5046252;28;20029;-79
2023/05/17 00:03:58;;;;;;;12.75;1.98;;;7.80;99.90;;;;;;5046792;28;20037;-78
2023/05/17 00:06:23;;;;;;;11.18;1.83;;;7.80;99.90;;;;;;5058930;28;20020;-77
2023/05/17 00:08:49;;;;;;;8.65;1.45;;;7.80;99.90;;;;;;5046968;28;20082;-78
2023/05/17 00:11:15;;;;;;;11.63;1.20;;;7.80;99.90;;;;;;5051328;28;20036;-79
2023/05/17 00:13:41;;;;;;;8.90;1.98;;;7.70;99.90;;;;;;5030114;28;20366;-78
2023/05/17 00:16:07;;;;;;;10.43;2.00;;;7.80;99.90;;;;;;5046566;28;20071;-78
2023/05/17 00:18:32;;;;;;;13.80;2.63;;;7.70;99.90;;;;;;5048688;28;20032;-79
2023/05/17 00:20:58;;;;;;;10.57;1.85;;;7.70;99.90;;;;;;5059964;28;20082;-78
2023/05/17 00:23:24;;;;;;;7.43;1.20;;;7.60;99.90;;;;;;5066325;28;20013;-78
2023/05/17 00:25:50;;;;;;;10.80;1.75;;;7.60;99.90;;;;;;5050541;28;20060;-77
2023/05/17 00:28:15;;;;;;;9.73;1.83;;;7.60;99.90;;;;;;5066131;28;20104;-78
2023/05/17 00:30:41;;;;;;;12.50;1.58;;;7.60;99.90;;;;;;5047480;28;20618;-78
2023/05/17 00:33:07;;;;;;;13.57;2.03;;;7.60;99.90;;;;;;5047073;28;20025;-78
2023/05/17 00:35:32;;;;;;;8.63;2.15;;;7.70;99.90;;;;;;5046471;28;20025;-79
2023/05/17 00:37:58;;;;;;;12.20;2.85;;;7.60;99.90;;;;;;5034454;28;20143;-78
2023/05/17 00:40:24;;;;;;;12.15;1.73;;;7.60;99.90;;;;;;5039810;28;20028;-77
2023/05/17 00:42:50;;;;;;;8.65;1.52;;;7.70;99.90;;;;;;5029120;28;20036;-78
2023/05/17 00:45:16;;;;;;;10.25;1.80;;;7.60;99.90;;;;;;5055561;28;20403;-78
2023/05/17 00:47:41;;;;;;;8.48;1.45;;;7.60;99.90;;;;;;5047618;28;20024;-78
2023/05/17 00:50:08;;;;;;;7.82;2.00;;;7.60;99.90;;;;;;5045054;28;20032;-78
2023/05/17 00:52:34;;;;;;;7.45;1.90;;;7.60;99.90;;;;;;5045054;28;20488;-78
2023/05/17 00:55:01;;;;;;;11.30;2.58;;;7.60;99.90;;;;;;5046879;28;20033;-78
2023/05/17 00:57:28;;;;;;;9.50;2.15;;;7.60;99.90;;;;;;5029727;28;20050;-79
2023/05/17 00:59:54;;;;;;;8.38;2.08;;;7.60;99.90;;;;;;5058017;28;20021;-78
2023/05/17 01:02:21;;;;;;;10.27;1.70;;;7.60;99.90;;;;;;5030020;28;20025;-79
2023/05/17 01:04:48;;;;;;;15.15;2.42;;;7.60;99.90;;;;;;5066699;28;20178;-79
2023/05/17 01:07:14;;;;;;;12.27;2.05;;;7.50;99.90;;;;;;5038801;28;20020;-78
2023/05/17 01:09:40;;;;;;;10.82;1.63;;;7.50;99.90;;;;;;5059527;28;20033;-79
2023/05/17 01:12:27;;;;;;;7.13;1.30;;;7.50;99.90;;;;;;5041003;28;20025;-79
2023/05/17 01:15:07;;;;;;;7.85;1.08;;;7.50;99.90;;;;;;5046344;28;20439;-78
2023/05/17 01:17:59;;;;;;;11.98;2.38;;;7.40;99.90;;;;;;5030088;28;20457;-79
2023/05/17 01:20:35;;;;;;;11.57;2.13;;;7.50;99.90;;;;;;5030477;28;20074;-79
2023/05/17 01:23:28;;;;;;;13.20;2.60;;;7.50;99.90;;;;;;5056455;28;20523;-78
2023/05/17 01:26:02;;;;;;;11.13;2.42;;;7.50;99.90;;;;;;5064964;28;20408;-78
2023/05/17 01:28:30;;;;;;;10.85;2.10;;;7.50;99.90;;;;;;5046401;28;20028;-79
2023/05/17 01:31:00;;;;;;;10.30;1.92;;;7.50;99.90;;;;;;5037826;28;20047;-79
2023/05/17 01:33:26;;;;;;;10.15;2.30;;;7.50;99.90;;;;;;5039347;28;20111;-77
2023/05/17 01:35:51;;;;;;;9.50;1.88;;;7.50;99.90;;;;;;5045604;28;20036;-79
2023/05/17 01:38:19;;;;;;;15.18;2.63;;;7.50;99.90;;;;;;5044901;28;20013;-79
2023/05/17 01:40:54;;;;;;;10.55;1.80;;;7.50;99.90;;;;;;5063146;28;20365;-79
2023/05/17 01:43:45;;;;;;;8.35;2.20;;;7.50;99.90;;;;;;5063225;28;20040;-78
2023/05/17 01:46:27;;;;;;;11.40;2.22;;;7.40;99.90;;;;;;5046526;28;20472;-78
2023/05/17 01:49:23;;;;;;;8.48;2.05;;;7.40;99.90;;;;;;5056318;28;20055;-79
2023/05/17 01:52:20;;;;;;;9.88;1.88;;;7.50;99.90;;;;;;5041542;28;20116;-78
2023/05/17 01:54:54;;;;;;;7.18;1.40;;;7.40;99.90;;;;;;5037939;28;20036;-78
2023/05/17 01:57:27;;;;;;;6.68;1.20;;;7.40;99.90;;;;;;5039422;28;20051;-78
2023/05/17 01:59:58;;;;;;;5.20;1.00;;;7.40;99.90;;;;;;5042844;28;20032;-79
2023/05/17 02:02:28;;;;;;;8.80;1.45;;;7.50;99.90;;;;;;5060025;28;20157;-79
2023/05/17 02:04:54;;;;;;;7.90;1.45;;;7.60;99.90;;;;;;5040605;28;20083;-78
2023/05/17 02:07:20;;;;;;;8.18;1.00;;;7.60;99.90;;;;;;5046025;28;20472;-79
2023/05/17 02:09:45;;;;;;;10.68;1.70;;;7.60;99.90;;;;;;5043907;28;20397;-78
2023/05/17 02:12:11;;;;;;;8.52;2.72;;;7.70;99.90;;;;;;5043607;28;20021;-79
2023/05/17 02:14:37;;;;;;;9.05;1.60;;;7.70;99.90;;;;;;5055930;28;20465;-79
2023/05/17 02:17:04;;;;;;;11.40;2.35;;;7.70;99.90;;;;;;5046231;28;20449;-79
2023/05/17 02:19:31;;;;;;;8.02;1.77;;;7.80;99.90;;;;;;5051253;28;20159;-79
2023/05/17 02:21:56;;;;;;;8.55;1.20;;;7.90;99.90;;;;;;5044989;28;20107;-77
2023/05/17 02:24:22;;;;;;;10.65;2.25;;;8.00;99.90;;;;;;5064149;28;20541;-78
2023/05/17 02:26:48;;;;;;;13.60;2.88;;;8.00;99.90;;;;;;5032112;28;20469;-78
2023/05/17 02:29:13;;;;;;;10.63;2.10;;;8.10;99.90;;;;;;5067851;28;20544;-79
2023/05/17 02:31:39;;;;;;;9.30;1.90;;;8.10;99.90;;;;;;5046516;28;20036;-78
2023/05/17 02:34:05;;;;;;;13.95;3.25;;;8.10;99.90;;;;;;5050555;28;20060;-78
2023/05/17 02:36:31;;;;;;;14.63;3.08;;;8.20;99.90;;;;;;5048336;28;20036;-79
2023/05/17 02:38:57;;;;;;;15.73;3.92;;;8.20;99.90;;;;;;5036394;28;20031;-79
2023/05/17 02:41:23;;;;;;;13.38;3.33;;;8.20;99.90;;;;;;5035929;28;20029;-78
2023/05/17 02:43:49;;;;;;;15.13;3.30;;;8.20;99.90;;;;;;5048398;28;20480;-78
2023/05/17 02:46:15;;;;;;;17.83;3.30;;;8.30;99.90;;;;;;5030524;28;20111;-79
2023/05/17 02:48:43;;;;;;;12.52;2.80;;;8.30;99.90;;;;;;5045997;28;20501;-79
2023/05/17 02:51:09;;;;;;;14.35;2.65;;;8.30;99.90;;;;;;5049803;28;20037;-79
2023/05/17 02:53:35;;;;;;;19.35;4.35;;;8.20;99.90;;;;;;5046227;28;20021;-79
2023/05/17 02:56:01;;;;;;;11.82;2.80;;;8.30;99.90;;;;;;5032591;28;20482;-79
2023/05/17 02:58:26;;;;;;;12.55;4.25;;;8.30;99.90;;;;;;5031778;28;20494;-79
2023/05/17 03:00:52;;;;;;;14.90;3.60;;;8.30;99.90;;;;;;5028162;28;20025;-77
2023/05/17 03:03:18;;;;;;;11.88;3.60;;;8.40;99.90;;;;;;5032313;28;20055;-79
2023/05/17 03:05:44;;;;;;;16.95;3.50;;;8.30;99.90;;;;;;5032975;28;21903;-79
2023/05/17 03:08:10;;;;;;;14.43;3.20;;;8.30;99.90;;;;;;5031360;28;20033;-79
2023/05/17 03:10:35;;;;;;;15.48;3.30;;;8.30;99.90;;;;;;5032215;28;20044;-79
2023/05/17 03:13:01;;;;;;;15.18;3.58;;;8.20;99.90;;;;;;5033085;28;20025;-79
2023/05/17 03:15:31;;;;;;;13.95;3.03;;;8.20;99.90;;;;;;5033033;28;20044;-79
2023/05/17 03:17:57;;;;;;;11.02;2.65;;;8.20;99.90;;;;;;5033748;28;20060;-79
2023/05/17 03:20:24;;;;;;;15.43;4.10;;;8.10;99.90;;;;;;5028292;28;20030;-78
2023/05/17 03:22:49;;;;;;;14.15;3.50;;;8.10;99.90;;;;;;5045166;28;20017;-79
2023/05/17 03:25:15;;;;;;;11.20;2.10;;;8.10;99.90;;;;;;5041941;28;20035;-79
2023/05/17 03:27:41;;;;;;;12.38;2.78;;;8.00;99.90;;;;;;5042973;28;20036;-79
2023/05/17 03:30:07;;;;;;;7.25;1.95;;;8.00;99.90;;;;;;5028395;28;20044;-79
2023/05/17 03:32:38;;;;;;;6.45;1.38;;;8.00;99.90;;;;;;5033554;28;20025;-79
2023/05/17 03:35:04;;;;;;;6.40;1.23;;;8.00;99.90;;;;;;5045629;28;20028;-78
2023/05/17 03:37:30;;;;;;;8.13;1.20;;;7.90;99.90;;;;;;5030836;28;20253;-79
2023/05/17 03:39:55;;;;;;;3.53;1.00;;;7.90;99.90;;;;;;5043734;28;20279;-79
2023/05/17 03:42:21;;;;;;;7.93;1.63;;;7.90;99.90;;;;;;5032382;28;20112;-79
2023/05/17 03:44:47;;;;;;;10.38;1.25;;;7.80;99.90;;;;;;5028125;28;20532;-79
2023/05/17 03:47:13;;;;;;;11.63;2.92;;;7.90;99.90;;;;;;5027075;28;20026;-79
2023/05/17 03:49:39;;;;;;;12.50;2.80;;;7.90;99.90;;;;;;5030496;28;20461;-79
2023/05/17 03:52:06;;;;;;;11.60;2.45;;;8.00;99.90;;;;;;5030859;28;20034;-79
2023/05/17 03:54:31;;;;;;;13.93;3.28;;;7.90;99.90;;;;;;5031761;28;20047;-79
2023/05/17 03:56:57;;;;;;;8.88;1.65;;;7.90;99.90;;;;;;5047010;28;20079;-79
2023/05/17 03:59:23;;;;;;;11.68;1.80;;;7.80;99.90;;;;;;5045619;28;20025;-79
2023/05/17 04:01:49;;;;;;;10.32;2.00;;;7.80;99.90;;;;;;5047825;28;20017;-79
2023/05/17 04:04:15;;;;;;;7.15;1.88;;;7.80;99.90;;;;;;5032210;28;20044;-79
2023/05/17 04:06:41;;;;;;;6.10;1.67;;;7.80;99.90;;;;;;5029810;28;20021;-79
2023/05/17 04:09:09;;;;;;;7.60;1.35;;;7.80;99.90;;;;;;5046959;28;20032;-79
2023/05/17 04:11:35;;;;;;;7.63;2.05;;;7.90;99.90;;;;;;5044124;28;20064;-79
2023/05/17 04:14:01;;;;;;;6.50;1.88;;;7.90;99.90;;;;;;5031576;28;20044;-78
2023/05/17 04:16:26;;;;;;;9.00;2.28;;;7.80;99.90;;;;;;5059672;28;20474;-79
2023/05/17 04:18:53;;;;;;;5.82;1.33;;;7.80;99.90;;;;;;5040546;28;20489;-78
2023/05/17 04:21:19;;;;;;;4.68;1.30;;;7.80;99.90;;;;;;5026143;28;20041;-79
2023/05/17 04:23:45;;;;;;;6.82;1.33;;;7.70;99.90;;;;;;5043148;28;20421;-79
2023/05/17 04:26:11;;;;;;;5.78;1.30;;;7.70;99.90;;;;;;5030820;28;20040;-79
2023/05/17 04:28:38;;;;;;;8.00;1.40;;;7.60;99.90;;;;;;5029846;28;20025;-79
2023/05/17 04:31:09;;;;;;;5.95;1.23;;;7.60;99.90;;;;;;5030453;28;20091;-79
2023/05/17 04:33:36;;;;;;;5.68;1.23;;;7.70;99.90;;;;;;5042745;28;20469;-79
2023/05/17 04:36:02;;;;;;;5.80;0.90;;;7.70;99.90;;;;;;5031348;28;20136;-79
2023/05/17 04:38:30;;;;;;;4.18;1.20;;;7.80;99.90;;;;;;5029290;28;20119;-79
2023/05/17 04:41:05;;;;;;;7.72;1.60;;;7.80;99.90;;;;;;5039687;28;20025;-79
2023/05/17 04:43:33;;;;;;;4.85;1.30;;;8.00;99.90;;;;;;5040721;28;20477;-79
2023/05/17 04:46:01;;;;;;;5.65;1.63;;;8.00;99.90;;;;;;5026963;28;20026;-78
2023/05/17 04:48:31;;;;;;;4.93;1.30;;;8.10;99.90;;;;;;5045458;28;20025;-79
2023/05/17 04:51:06;;;;;;;3.47;0.70;;;8.20;99.90;;;;;;5058790;28;20037;-79
2023/05/17 04:53:31;;;;;;;3.75;1.13;;;8.40;99.90;;;;;;5043101;28;20377;-79
2023/05/17 04:56:00;;;;;;;4.90;1.20;;;8.50;99.90;;;;;;5030417;28;20029;-79
2023/05/17 04:58:26;;;;;;;5.82;1.35;;;8.60;99.90;;;;;;5042628;28;20017;-78
2023/05/17 05:00:56;;;;;;;7.30;2.67;;;8.60;99.90;;;;;;5027512;28;20397;-77
2023/05/17 05:03:23;;;;;;;11.00;1.90;;;8.70;99.90;;;;;;5044089;28;20534;-80
2023/05/17 05:05:49;;;;;;;8.77;1.48;;;8.80;99.90;;;;;;5024646;28;20120;-78
2023/05/17 05:08:15;;;;;;;10.13;1.80;;;8.90;99.90;;;;;;5030003;28;20482;-78
2023/05/17 05:10:42;;;;;;;6.90;1.30;;;9.00;99.90;;;;;;5028595;28;20047;-79
2023/05/17 05:13:09;;;;;;;8.05;1.33;;;9.10;99.90;;;;;;5043934;28;20029;-79
2023/05/17 05:15:35;;;;;;;8.45;1.38;;;9.10;99.90;;;;;;5025696;28;20032;-79
2023/05/17 05:18:00;;;;;;;5.43;1.10;;;9.00;99.90;;;;;;5028579;28;20118;-79
2023/05/17 05:20:28;;;;;;;6.45;1.00;;;9.10;99.90;;;;;;5039179;28;20478;-79
2023/05/17 05:22:57;;;;;;;6.97;1.00;;;9.10;99.90;;;;;;5029006;28;20473;-80
2023/05/17 05:25:23;;;;;;;5.63;0.73;;;9.10;99.90;;;;;;5043271;28;20025;-81
2023/05/17 05:27:48;;;;;;;6.63;0.82;;;9.20;99.90;;;;;;5043898;28;20543;-80
2023/05/17 05:30:20;;;;;;;6.68;1.25;;;9.20;99.90;;;;;;5042365;28;20029;-79
2023/05/17 05:32:49;;;;;;;10.88;0.90;;;9.20;99.90;;;;;;5042364;28;20025;-81
2023/05/17 05:35:15;;;;;;;13.23;1.70;;;9.20;99.90;;;;;;5043100;28;20178;-79
2023/05/17 05:37:42;;;;;;;9.02;1.15;;;9.30;99.90;;;;;;5055267;28;20053;-80
2023/05/17 05:40:09;;;;;;;7.40;1.45;;;9.40;99.90;;;;;;5026982;28;20041;-81
2023/05/17 05:42:35;;;;;;;9.60;1.35;;;9.30;99.90;;;;;;5040879;28;20060;-80
2023/05/17 05:45:01;;;;;;;6.25;0.73;;;9.30;99.90;;;;;;5042125;28;20069;-80
2023/05/17 05:47:27;;;;;;;8.55;2.00;;;9.30;99.90;;;;;;5043059;28;20061;-80
2023/05/17 05:49:52;;;;;;;10.75;1.67;;;9.20;99.90;;;;;;5045225;28;20057;-80
2023/05/17 05:52:18;;;;;;;9.98;1.80;;;9.30;99.90;;;;;;5042139;28;20043;-80
2023/05/17 05:54:44;;;;;;;10.60;1.42;;;9.50;99.90;;;;;;5025536;28;20041;-80
2023/05/17 05:57:10;;;;;;;12.90;2.08;;;9.90;99.90;;;;;;5025525;28;20040;-79
2023/05/17 05:59:36;;;;;;;13.07;2.17;;;9.90;99.90;;;;;;5054629;28;20561;-78
2023/05/17 06:02:01;;;;;;;14.27;1.77;;;9.80;99.90;;;;;;5025032;28;20033;-79
2023/05/17 06:04:27;;;;;;;8.88;1.17;;;9.80;99.90;;;;;;5024622;28;20025;-79
2023/05/17 06:06:56;;;;;;;9.82;1.50;;;9.70;99.90;;;;;;5037173;28;20466;-79
2023/05/17 06:09:21;;;;;;;11.88;1.50;;;9.90;99.90;;;;;;5025657;28;20039;-78
2023/05/17 06:11:47;;;;;;;14.88;1.60;;;10.10;99.90;;;;;;5052667;28;20049;-79
2023/05/17 06:14:13;;;;;;;13.38;1.52;;;10.00;99.90;;;;;;5041416;28;20108;-79
2023/05/17 06:16:39;;;;;;;8.70;1.08;;;10.20;99.90;;;;;;5029315;28;20091;-79
2023/05/17 06:19:05;;;;;;;19.27;1.65;;;10.10;99.90;;;;;;5031418;28;20029;-79
2023/05/17 06:21:30;;;;;;;10.95;0.90;;;10.00;99.90;;;;;;5036058;28;20024;-79
2023/05/17 06:23:56;;;;;;;10.30;0.70;;;10.40;99.90;;;;;;5034271;28;20496;-79
2023/05/17 06:26:22;;;;;;;10.10;1.88;;;10.60;99.90;;;;;;5021848;28;20036;-78
2023/05/17 06:28:48;;;;;;;9.60;0.80;;;10.70;99.90;;;;;;5039911;28;20030;-79
2023/05/17 06:31:13;;;;;;;13.65;0.70;;;10.80;99.90;;;;;;5029965;28;20029;-79
2023/05/17 06:33:39;;;;;;;7.68;0.88;;;11.00;99.90;;;;;;5034462;28;20423;-79
2023/05/17 06:36:05;;;;;;;9.13;1.02;;;11.30;99.90;;;;;;5036523;28;20040;-80
2023/05/17 06:38:31;;;;;;;8.75;0.70;;;11.20;99.90;;;;;;5040850;28;20501;-79
2023/05/17 06:40:57;;;;;;;7.65;0.47;;;11.00;99.90;;;;;;5025075;28;20021;-79
2023/05/17 06:43:23;;;;;;;12.65;0.65;;;11.10;99.90;;;;;;5036185;28;20097;-80
2023/05/17 06:45:49;;;;;;;6.10;0.50;;;11.30;99.90;;;;;;5034940;28;20086;-80
2023/05/17 06:48:15;;;;;;;4.35;0.32;;;11.70;99.90;;;;;;5018550;28;20024;-80
2023/05/17 06:50:41;;;;;;;6.57;0.88;;;11.60;99.90;;;;;;5024853;28;20038;-79
2023/05/17 06:53:06;;;;;;;6.68;0.40;;;11.80;99.90;;;;;;5017454;28;20033;-80
2023/05/17 06:55:32;;;;;;;7.75;0.60;;;11.90;99.90;;;;;;5018126;28;20036;-80
2023/05/17 06:57:59;;;;;;;9.23;0.50;;;11.40;99.90;;;;;;5018198;28;20037;-81
2023/05/17 07:00:25;;;;;;;5.03;0.40;;;11.00;99.90;;;;;;5039549;28;20350;-79
2023/05/17 07:02:51;;;;;;;3.60;0.30;;;11.40;99.90;;;;;;5040800;28;20022;-79
2023/05/17 07:05:16;;;;;;;4.70;0.47;;;12.00;99.90;;;;;;5035518;28;20020;-80
2023/05/17 07:07:42;;;;;;;5.95;0.40;;;11.80;99.90;;;;;;5038953;28;20424;-79
2023/05/17 07:10:08;;;;;;;5.60;0.40;;;11.70;99.90;;;;;;5026679;28;20730;-79
2023/05/17 07:12:34;;;;;;;6.82;0.75;;;11.70;99.90;;;;;;5036394;28;20036;-79
2023/05/17 07:15:00;;;;;;;8.70;0.55;;;11.70;99.90;;;;;;5041789;28;20029;-79
2023/05/17 07:17:26;;;;;;;6.75;0.52;;;11.80;99.90;;;;;;5020699;28;20500;-80
2023/05/17 07:19:51;;;;;;;4.13;0.30;;;12.00;99.90;;;;;;5035098;28;20090;-79
2023/05/17 07:22:18;;;;;;;6.25;0.43;;;12.50;99.90;;;;;;5026781;28;20032;-79
2023/05/17 07:24:45;;;;;;;5.55;0.43;;;12.40;99.90;;;;;;5021511;28;20036;-80
2023/05/17 07:27:11;;;;;;;7.68;0.73;;;12.00;99.90;;;;;;5021274;28;20112;-79
2023/05/17 07:29:36;;;;;;;10.85;0.50;;;11.70;99.90;;;;;;5026552;28;20040;-80
2023/05/17 07:32:02;;;;;;;8.07;0.60;;;11.80;99.90;;;;;;5020271;28;20123;-78
2023/05/17 07:34:30;;;;;;;5.72;0.50;;;11.90;99.90;;;;;;5055609;28;20029;-80
2023/05/17 07:36:56;;;;;;;3.55;0.30;;;12.30;99.90;;;;;;5021388;28;20029;-79
2023/05/17 07:39:21;;;;;;;3.60;0.40;;;13.20;99.90;;;;;;5044954;28;20032;-79
2023/05/17 07:41:47;;;;;;;5.28;0.40;;;12.60;99.90;;;;;;5040478;28;20497;-79
2023/05/17 07:44:12;;;;;;;5.38;0.40;;;11.90;99.90;;;;;;5050397;28;20398;-79
2023/05/17 07:46:38;;;;;;;3.80;0.43;;;11.80;99.90;;;;;;5036850;28;20029;-79
2023/05/17 07:49:04;;;;;;;4.00;0.30;;;11.50;99.90;;;;;;5037078;28;20056;-79
2023/05/17 07:51:30;;;;;;;4.28;0.40;;;12.30;99.90;;;;;;5046440;28;20075;-79
2023/05/17 07:53:56;;;;;;;6.10;0.60;;;12.30;99.90;;;;;;5057737;28;20064;-79
2023/05/17 07:56:22;;;;;;;4.25;0.30;;;12.60;99.90;;;;;;5042440;28;20024;-77
2023/05/17 07:58:47;;;;;;;7.47;0.45;;;12.90;99.90;;;;;;5029838;28;20028;-79
2023/05/17 08:01:13;;;;;;;5.75;0.57;;;13.20;99.90;;;;;;5040932;28;20028;-79
2023/05/17 08:03:46;;;;;;;4.10;0.40;;;13.00;99.90;;;;;;5044289;28;20027;-78
2023/05/17 08:06:13;;;;;;;4.38;0.35;;;13.30;99.90;;;;;;5051833;28;20032;-79
2023/05/17 08:08:39;;;;;;;3.70;0.50;;;13.10;99.90;;;;;;5038959;28;20024;-79
2023/05/17 08:11:06;;;;;;;3.13;0.35;;;13.50;99.90;;;;;;5032979;28;20109;-78
2023/05/17 08:13:31;;;;;;;3.58;0.40;;;12.90;99.90;;;;;;5040787;28;20074;-79
2023/05/17 08:16:02;;;;;;;7.60;0.40;;;12.60;99.90;;;;;;5039592;28;20432;-79
2023/05/17 08:18:31;;;;;;;4.65;0.30;;;12.30;99.90;;;;;;5039063;28;20028;-80
2023/05/17 08:20:57;;;;;;;5.10;0.30;;;13.20;99.90;;;;;;5040217;28;20036;-79
2023/05/17 08:23:22;;;;;;;6.57;0.47;;;13.20;99.90;;;;;;5039099;28;20029;-79
2023/05/17 08:25:48;;;;;;;3.25;0.40;;;12.80;99.90;;;;;;5040325;28;20032;-79
2023/05/17 08:28:13;;;;;;;8.57;0.40;;;13.30;99.90;;;;;;5053986;28;20239;-79
2023/05/17 08:30:40;;;;;;;4.90;0.30;;;13.20;99.90;;;;;;5042477;28;20111;-79
2023/05/17 08:33:08;;;;;;;2.90;0.45;;;13.50;99.90;;;;;;5038966;28;20036;-79
2023/05/17 08:35:34;;;;;;;4.03;0.30;;;13.30;99.90;;;;;;5057126;28;20028;-79
2023/05/17 08:37:59;;;;;;;2.97;0.30;;;13.40;99.90;;;;;;5050209;28;20462;-80
2023/05/17 08:40:26;;;;;;;3.97;0.35;;;13.50;99.90;;;;;;5051941;28;20016;-80
2023/05/17 08:42:53;;;;;;;2.63;0.30;;;13.20;99.90;;;;;;5056064;28;20080;-80
2023/05/17 08:45:19;;;;;;;4.47;0.47;;;13.20;99.90;;;;;;5040299;28;20071;-79
2023/05/17 08:47:49;;;;;;;4.38;0.30;;;13.70;99.90;;;;;;5058520;28;20044;-78
2023/05/17 08:50:16;;;;;;;3.15;0.40;;;13.70;99.90;;;;;;5030316;28;20040;-80
2023/05/17 08:52:45;;;;;;;4.90;0.35;;;13.90;99.90;;;;;;5025328;28;20044;-79
2023/05/17 08:55:10;;;;;;;5.90;0.30;;;14.00;99.90;;;;;;5039373;28;20497;-79
2023/05/17 08:57:38;;;;;;;3.17;0.30;;;14.20;99.90;;;;;;5052000;28;20029;-80
2023/05/17 09:00:11;;;;;;;3.35;0.30;;;14.30;99.90;;;;;;5029496;28;20044;-80
2023/05/17 09:02:37;;;;;;;2.05;0.20;;;15.10;99.90;;;;;;5038646;28;20021;-79
2023/05/17 09:05:05;;;;;;;2.33;0.25;;;14.90;99.90;;;;;;5055479;28;20037;-79
2023/05/17 09:07:31;;;;;;;4.80;0.30;;;14.10;99.90;;;;;;5038583;28;20438;-79
2023/05/17 09:09:57;;;;;;;4.75;0.60;;;13.20;99.90;;;;;;5023816;28;20410;-79
2023/05/17 09:12:23;;;;;;;3.28;0.22;;;13.10;99.90;;;;;;5022386;28;20037;-80
2023/05/17 09:14:49;;;;;;;1.75;0.30;;;14.10;99.90;;;;;;5034354;28;20020;-79
2023/05/17 09:17:19;;;;;;;3.67;0.60;;;14.10;99.90;;;;;;5032500;28;20032;-80
2023/05/17 09:19:46;;;;;;;4.30;0.32;;;13.70;99.90;;;;;;5036626;28;20032;-78
2023/05/17 09:22:19;;;;;;;5.75;0.40;;;13.60;99.90;;;;;;5039550;28;20777;-80
2023/05/17 09:24:45;;;;;;;4.97;0.40;;;12.80;99.90;;;;;;5030770;28;20033;-80
2023/05/17 09:27:16;;;;;;;4.43;0.50;;;12.70;99.90;;;;;;5055261;28;20111;-80
2023/05/17 09:29:45;;;;;;;3.63;0.40;;;13.40;99.90;;;;;;5038664;28;20481;-79
2023/05/17 09:32:19;;;;;;;2.28;0.20;;;14.40;99.90;;;;;;5040233;28;20284;-79
2023/05/17 09:34:47;;;;;;;3.10;0.20;;;15.20;99.90;;;;;;5038000;28;21735;-79
2023/05/17 09:37:14;;;;;;;4.32;0.30;;;15.30;99.90;;;;;;5057209;28;20029;-79
2023/05/17 09:39:40;;;;;;;3.42;0.47;;;14.30;99.90;;;;;;5037138;28;20021;-80
2023/05/17 09:42:06;;;;;;;3.60;0.40;;;14.30;99.90;;;;;;5037801;28;20132;-80
2023/05/17 09:44:49;;;;;;;4.07;0.30;;;14.00;99.90;;;;;;5034612;28;20139;-80
2023/05/17 09:47:25;;;;;;;6.50;0.30;;;14.20;99.90;;;;;;5039069;28;20042;-80
2023/05/17 09:49:51;;;;;;;2.67;0.30;;;15.00;99.90;;;;;;5045125;28;20025;-79
2023/05/17 09:52:19;;;;;;;2.88;0.30;;;14.80;99.90;;;;;;5045757;28;20077;-80
2023/05/17 09:54:56;;;;;;;4.63;0.32;;;15.20;99.90;;;;;;5053214;28;20025;-80
2023/05/17 09:57:24;;;;;;;4.50;0.30;;;14.50;99.90;;;;;;5055875;28;20028;-80
2023/05/17 09:59:50;;;;;;;2.75;0.20;;;13.80;99.90;;;;;;5054464;28;20165;-80
2023/05/17 10:02:21;;;;;;;3.75;0.20;;;14.60;99.90;;;;;;5043604;28;20029;-79
2023/05/17 10:04:52;;;;;;;2.17;0.28;;;15.00;99.90;;;;;;5056649;28;20032;-80
2023/05/17 10:07:19;;;;;;;5.25;0.55;;;15.50;99.90;;;;;;5045072;28;20037;-80
2023/05/17 10:09:49;;;;;;;3.13;0.28;;;14.90;99.90;;;;;;5057551;28;20431;-80
2023/05/17 10:12:17;;;;;;;2.00;0.20;;;14.50;99.90;;;;;;5039071;28;20028;-80
2023/05/17 10:14:43;;;;;;;2.63;0.20;;;15.20;99.90;;;;;;5037094;28;20119;-80
2023/05/17 10:17:09;;;;;;;2.75;0.30;;;15.60;99.90;;;;;;5033316;28;20035;-80
2023/05/17 10:19:35;;;;;;;2.72;0.30;;;15.30;99.90;;;;;;5042806;28;20032;-80
2023/05/17 10:22:02;;;;;;;2.17;0.28;;;15.70;99.90;;;;;;5035581;28;20041;-80
2023/05/17 10:24:30;;;;;;;2.45;0.20;;;15.80;99.90;;;;;;5048659;28;20096;-80
2023/05/17 10:26:56;;;;;;;3.75;0.35;;;15.70;99.90;;;;;;5055099;28;20035;-79
2023/05/17 10:29:23;;;;;;;4.25;0.30;;;15.00;99.90;;;;;;5058630;28;20021;-80
2023/05/17 10:31:51;;;;;;;1.42;0.20;;;15.10;99.90;;;;;;5055982;28;20033;-80
2023/05/17 10:34:18;;;;;;;1.83;0.17;;;16.00;99.90;;;;;;5037161;28;20048;-81
2023/05/17 10:36:45;;;;;;;3.90;0.30;;;16.00;99.90;;;;;;5047592;28;20075;-78
2023/05/17 10:39:11;;;;;;;3.15;0.20;;;15.30;99.90;;;;;;5020905;28;20389;-80
2023/05/17 10:41:41;;;;;;;3.28;0.38;;;15.60;99.90;;;;;;5056661;28;20040;-79
2023/05/17 10:44:12;;;;;;;3.50;0.28;;;15.60;99.90;;;;;;5060576;28;20074;-79
2023/05/17 10:46:38;;;;;;;2.95;0.38;;;15.80;99.90;;;;;;5042255;28;20032;-79
2023/05/17 10:49:04;;;;;;;3.97;0.30;;;15.50;99.90;;;;;;5042970;28;20104;-79
2023/05/17 10:51:36;;;;;;;1.80;0.20;;;15.30;99.90;;;;;;5042594;28;20484;-80
2023/05/17 10:54:11;;;;;;;3.03;0.30;;;15.30;99.90;;;;;;5041735;28;20055;-79
2023/05/17 10:56:45;;;;;;;2.65;0.20;;;15.40;99.90;;;;;;5036080;28;20075;-79
2023/05/17 10:59:26;;;;;;;1.77;0.22;;;15.30;99.90;;;;;;5041955;28;20025;-80
2023/05/17 11:02:06;;;;;;;2.95;0.35;;;15.90;99.90;;;;;;5027468;28;20086;-79
2023/05/17 11:04:49;;;;;;;3.47;0.28;;;15.80;99.90;;;;;;5046495;28;20473;-80
2023/05/17 11:07:20;;;;;;;3.40;0.30;;;16.40;99.90;;;;;;5055694;28;21994;-80
2023/05/17 11:09:55;;;;;;;4.57;0.35;;;16.10;99.90;;;;;;5030724;28;20108;-79
2023/05/17 11:12:52;;;;;;;1.83;0.28;;;15.50;99.90;;;;;;5031047;28;20040;-80
2023/05/17 11:15:23;;;;;;;2.47;0.32;;;16.10;99.90;;;;;;5057655;28;20130;-80
2023/05/17 11:17:52;;;;;;;4.72;0.40;;;15.70;99.90;;;;;;5041441;28;20036;-79
2023/05/17 11:20:24;;;;;;;3.85;0.30;;;16.40;99.90;;;;;;5042205;28;20029;-80
2023/05/17 11:22:58;;;;;;;3.17;0.30;;;16.80;99.90;;;;;;5057097;28;20083;-81
2023/05/17 11:25:28;;;;;;;4.22;0.30;;;15.90;99.90;;;;;;5060066;28;20036;-79
2023/05/17 11:27:54;;;;;;;2.60;0.30;;;15.90;99.90;;;;;;5039804;28;20024;-79
2023/05/17 11:30:25;;;;;;;1.88;0.28;;;16.30;99.90;;;;;;5040522;28;20051;-79
2023/05/17 11:33:04;;;;;;;4.43;0.30;;;16.50;99.90;;;;;;5022305;28;20031;-79
2023/05/17 11:35:35;;;;;;;5.70;0.38;;;16.00;99.90;;;;;;5058133;28;20101;-79
2023/05/17 11:38:17;;;;;;;5.35;0.30;;;15.80;99.90;;;;;;5061390;28;20028;-79
2023/05/17 11:40:46;;;;;;;4.88;0.50;;;16.30;99.90;;;;;;5040554;28;20226;-79
2023/05/17 11:43:12;;;;;;;2.78;0.20;;;16.00;99.90;;;;;;5060051;28;20041;-79
2023/05/17 11:45:52;;;;;;;2.85;0.20;;;16.10;99.90;;;;;;5060285;28;20105;-79
2023/05/17 11:48:21;;;;;;;3.33;0.40;;;16.30;99.90;;;;;;5056671;28;20392;-78
2023/05/17 11:50:48;;;;;;;5.93;0.30;;;15.90;99.90;;;;;;5039411;28;20373;-79
2023/05/17 11:53:14;;;;;;;3.65;0.30;;;16.10;99.90;;;;;;5021636;28;20021;-78
2023/05/17 11:55:43;;;;;;;3.30;0.35;;;15.80;99.90;;;;;;5051027;28;20031;-77
2023/05/17 11:58:14;;;;;;;2.33;0.20;;;16.40;99.90;;;;;;5058138;28;20162;-78
2023/05/17 12:00:41;;;;;;;5.45;0.40;;;17.00;99.90;;;;;;5059737;28;20368;-78
2023/05/17 12:03:21;;;;;;;5.05;0.20;;;17.10;99.90;;;;;;5060152;28;20508;-78
2023/05/17 12:05:50;;;;;;;4.50;0.30;;;17.00;99.90;;;;;;5057945;28;20513;-79
2023/05/17 12:08:20;;;;;;;2.40;0.22;;;16.80;99.90;;;;;;5057434;28;20033;-79
2023/05/17 12:10:49;;;;;;;6.22;0.50;;;16.50;99.90;;;;;;5039655;28;20841;-79
2023/05/17 12:13:15;;;;;;;7.55;0.60;;;15.70;99.90;;;;;;5055458;28;20031;-77
2023/05/17 12:15:46;;;;;;;7.82;0.60;;;15.90;99.90;;;;;;5057566;28;20029;-78
2023/05/17 12:18:12;;;;;;;6.72;0.50;;;15.90;99.90;;;;;;5025036;28;20420;-78
2023/05/17 12:20:38;;;;;;;4.38;0.40;;;15.50;99.90;;;;;;5052447;28;20033;-78
2023/05/17 12:23:04;;;;;;;5.70;0.50;;;15.60;99.90;;;;;;5060802;28;20491;-78
2023/05/17 12:25:29;;;;;;;4.40;0.45;;;15.80;99.90;;;;;;5041500;28;20112;-78
2023/05/17 12:28:20;;;;;;;4.85;0.40;;;16.20;99.90;;;;;;5057733;28;20056;-78
2023/05/17 12:30:52;;;;;;;2.90;0.40;;;16.30;99.90;;;;;;5055495;28;20529;-79
2023/05/17 12:33:18;;;;;;;7.82;0.60;;;16.10;99.90;;;;;;5040536;28;20052;-78
2023/05/17 12:35:44;;;;;;;4.80;0.40;;;16.70;99.90;;;;;;5040566;28;20081;-78
2023/05/17 12:38:10;;;;;;;7.03;0.52;;;16.60;99.90;;;;;;5057917;28;20025;-78
2023/05/17 12:40:39;;;;;;;4.13;0.50;;;15.70;99.90;;;;;;5039884;28;20094;-78
2023/05/17 12:43:05;;;;;;;2.33;0.40;;;16.10;99.90;;;;;;5045012;28;20540;-77
2023/05/17 12:45:33;;;;;;;3.35;0.30;;;17.10;99.90;;;;;;5048193;28;20113;-79
2023/05/17 12:47:59;;;;;;;4.85;0.30;;;16.90;99.90;;;;;;5040526;28;20052;-78
2023/05/17 12:50:29;;;;;;;3.10;0.50;;;16.50;99.90;;;;;;5045179;28;20108;-78
2023/05/17 12:52:55;;;;;;;6.85;0.50;;;16.40;99.90;;;;;;5039969;28;20040;-79